aviador You're here:

SCCI Decoded Metar

PUNTA ARENAS in CHILE
Report Time2017-12-11 09:00:00
UTC Time2017-12-11 09:17:12
Flight Rules vfr VFR
Wind240° at 28 Gusting to 39 kt
W.Decomp.*RWY 25: 25.8 kt HW 10.9 kt LCW
RWY 19: 22.4 kt HW 16.9 kt RCW
RWY 30: 8.2 kt HW 26.8 kt LCW
W.Rank240° ranks 4
Current wind is above 240° avg. (15.2)
Visibility9999 m
Phenomena:N/A
Clouds:Few 040 Hf
Expected CloudBase > 2,800 ft AGL from Temp-Dew spread
CeilingNone
Temp09°C (ISA -6)
Dew Point02°C (62% RH)
AAT-2.7°C
QNH0998 hPa
Density Alt39 ft
Elevation121 ft
Report Wrong Elevation
Raw Report
SCCI 110900Z 24028G39KT 9999 FEW040 09/02 Q0998 NOSIG=

Extra information for SCCI:More info

Metar Taf Metar & Taf Last 4 Metars F.Rules Stats Wind Profile Meteogram Temp Stats Airport Information Weather charts Add Link Nearby VenuesMetar ALERT Operation Metar Decoded Social comments